sensor_id;sensor_type;location;lat;lon;timestamp;P1;durP1;ratioP1;P2;durP2;ratioP2
14326;SDS011;7247;53.330;-1.180;2023-05-14T00:01:26;37.40;;;28.17;;
14326;SDS011;7247;53.330;-1.180;2023-05-14T00:03:53;37.77;;;28.13;;
14326;SDS011;7247;53.330;-1.180;2023-05-14T00:06:20;37.37;;;28.40;;
14326;SDS011;7247;53.330;-1.180;2023-05-14T00:08:47;36.97;;;28.87;;
14326;SDS011;7247;53.330;-1.180;2023-05-14T00:11:13;36.80;;;28.03;;
14326;SDS011;7247;53.330;-1.180;2023-05-14T00:13:40;34.20;;;27.03;;
14326;SDS011;7247;53.330;-1.180;2023-05-14T00:16:06;40.43;;;29.10;;
14326;SDS011;7247;53.330;-1.180;2023-05-14T00:18:32;38.53;;;30.43;;
14326;SDS011;7247;53.330;-1.180;2023-05-14T00:20:59;41.37;;;29.73;;
14326;SDS011;7247;53.330;-1.180;2023-05-14T00:23:27;41.17;;;31.00;;
14326;SDS011;7247;53.330;-1.180;2023-05-14T00:25:53;39.27;;;29.10;;
14326;SDS011;7247;53.330;-1.180;2023-05-14T00:28:20;38.57;;;29.17;;
14326;SDS011;7247;53.330;-1.180;2023-05-14T00:30:46;34.57;;;27.70;;
14326;SDS011;7247;53.330;-1.180;2023-05-14T00:33:13;35.67;;;27.90;;
14326;SDS011;7247;53.330;-1.180;2023-05-14T00:35:39;38.97;;;29.00;;
14326;SDS011;7247;53.330;-1.180;2023-05-14T00:38:05;46.93;;;32.60;;
14326;SDS011;7247;53.330;-1.180;2023-05-14T00:40:33;48.80;;;34.43;;
14326;SDS011;7247;53.330;-1.180;2023-05-14T00:43:00;50.33;;;35.70;;
14326;SDS011;7247;53.330;-1.180;2023-05-14T00:45:26;47.30;;;34.03;;
14326;SDS011;7247;53.330;-1.180;2023-05-14T00:47:53;46.70;;;33.80;;
14326;SDS011;7247;53.330;-1.180;2023-05-14T00:50:19;48.03;;;33.23;;
14326;SDS011;7247;53.330;-1.180;2023-05-14T00:52:46;47.17;;;32.17;;
14326;SDS011;7247;53.330;-1.180;2023-05-14T00:55:13;43.00;;;31.60;;
14326;SDS011;7247;53.330;-1.180;2023-05-14T00:57:42;47.83;;;33.97;;
14326;SDS011;7247;53.330;-1.180;2023-05-14T01:00:09;53.03;;;37.43;;
14326;SDS011;7247;53.330;-1.180;2023-05-14T01:02:36;66.30;;;43.77;;
14326;SDS011;7247;53.330;-1.180;2023-05-14T01:05:02;66.40;;;43.93;;
14326;SDS011;7247;53.330;-1.180;2023-05-14T01:07:30;68.33;;;44.33;;
14326;SDS011;7247;53.330;-1.180;2023-05-14T01:10:00;73.87;;;46.57;;
14326;SDS011;7247;53.330;-1.180;2023-05-14T01:12:29;70.63;;;46.67;;
14326;SDS011;7247;53.330;-1.180;2023-05-14T01:15:01;60.63;;;41.67;;
14326;SDS011;7247;53.330;-1.180;2023-05-14T01:17:28;69.97;;;44.67;;
14326;SDS011;7247;53.330;-1.180;2023-05-14T01:19:54;64.87;;;44.57;;
14326;SDS011;7247;53.330;-1.180;2023-05-14T01:22:23;65.33;;;44.50;;
14326;SDS011;7247;53.330;-1.180;2023-05-14T01:24:49;68.20;;;45.47;;
14326;SDS011;7247;53.330;-1.180;2023-05-14T01:27:16;63.00;;;43.77;;
14326;SDS011;7247;53.330;-1.180;2023-05-14T01:29:44;67.10;;;45.40;;
14326;SDS011;7247;53.330;-1.180;2023-05-14T01:32:13;70.57;;;45.47;;
14326;SDS011;7247;53.330;-1.180;2023-05-14T01:34:40;68.97;;;44.43;;
14326;SDS011;7247;53.330;-1.180;2023-05-14T01:37:07;65.67;;;44.97;;
14326;SDS011;7247;53.330;-1.180;2023-05-14T01:39:36;67.77;;;44.10;;
14326;SDS011;7247;53.330;-1.180;2023-05-14T01:42:03;71.47;;;46.13;;
14326;SDS011;7247;53.330;-1.180;2023-05-14T01:44:29;64.00;;;44.70;;
14326;SDS011;7247;53.330;-1.180;2023-05-14T01:46:56;68.10;;;45.23;;
14326;SDS011;7247;53.330;-1.180;2023-05-14T01:49:22;65.90;;;44.83;;
14326;SDS011;7247;53.330;-1.180;2023-05-14T01:51:48;72.67;;;46.33;;
14326;SDS011;7247;53.330;-1.180;2023-05-14T01:54:15;72.87;;;46.37;;
14326;SDS011;7247;53.330;-1.180;2023-05-14T01:56:43;74.63;;;47.47;;
14326;SDS011;7247;53.330;-1.180;2023-05-14T01:59:09;74.97;;;46.20;;
14326;SDS011;7247;53.330;-1.180;2023-05-14T02:01:35;72.47;;;46.40;;
14326;SDS011;7247;53.330;-1.180;2023-05-14T02:04:02;70.70;;;46.33;;
14326;SDS011;7247;53.330;-1.180;2023-05-14T02:06:28;66.80;;;44.40;;
14326;SDS011;7247;53.330;-1.180;2023-05-14T02:08:55;68.63;;;45.67;;
14326;SDS011;7247;53.330;-1.180;2023-05-14T02:11:22;68.70;;;46.27;;
14326;SDS011;7247;53.330;-1.180;2023-05-14T02:13:49;65.60;;;44.83;;
14326;SDS011;7247;53.330;-1.180;2023-05-14T02:16:16;68.40;;;44.33;;
14326;SDS011;7247;53.330;-1.180;2023-05-14T02:18:43;68.30;;;44.80;;
14326;SDS011;7247;53.330;-1.180;2023-05-14T02:21:09;67.00;;;44.80;;
14326;SDS011;7247;53.330;-1.180;2023-05-14T02:23:36;65.17;;;44.50;;
14326;SDS011;7247;53.330;-1.180;2023-05-14T02:26:02;67.90;;;45.07;;
14326;SDS011;7247;53.330;-1.180;2023-05-14T02:28:28;63.07;;;43.73;;
14326;SDS011;7247;53.330;-1.180;2023-05-14T02:30:58;63.10;;;43.03;;
14326;SDS011;7247;53.330;-1.180;2023-05-14T02:33:25;60.50;;;43.23;;
14326;SDS011;7247;53.330;-1.180;2023-05-14T02:35:51;63.57;;;43.40;;
14326;SDS011;7247;53.330;-1.180;2023-05-14T02:38:19;58.27;;;41.83;;
14326;SDS011;7247;53.330;-1.180;2023-05-14T02:40:45;57.90;;;40.67;;
14326;SDS011;7247;53.330;-1.180;2023-05-14T02:43:11;58.90;;;41.27;;
14326;SDS011;7247;53.330;-1.180;2023-05-14T02:45:38;59.37;;;42.57;;
14326;SDS011;7247;53.330;-1.180;2023-05-14T02:48:06;61.03;;;42.63;;
14326;SDS011;7247;53.330;-1.180;2023-05-14T02:50:32;58.53;;;42.40;;
14326;SDS011;7247;53.330;-1.180;2023-05-14T02:52:58;57.23;;;41.67;;
14326;SDS011;7247;53.330;-1.180;2023-05-14T02:55:25;53.17;;;39.00;;
14326;SDS011;7247;53.330;-1.180;2023-05-14T02:57:52;54.03;;;38.80;;
14326;SDS011;7247;53.330;-1.180;2023-05-14T03:00:18;56.73;;;40.10;;
14326;SDS011;7247;53.330;-1.180;2023-05-14T03:02:45;52.27;;;38.73;;
14326;SDS011;7247;53.330;-1.180;2023-05-14T03:05:12;56.23;;;39.53;;
14326;SDS011;7247;53.330;-1.180;2023-05-14T03:07:39;70.83;;;41.90;;
14326;SDS011;7247;53.330;-1.180;2023-05-14T03:10:06;62.17;;;41.93;;
14326;SDS011;7247;53.330;-1.180;2023-05-14T03:12:32;75.07;;;42.07;;
14326;SDS011;7247;53.330;-1.180;2023-05-14T03:14:58;59.87;;;41.67;;
14326;SDS011;7247;53.330;-1.180;2023-05-14T03:17:25;62.30;;;41.53;;
14326;SDS011;7247;53.330;-1.180;2023-05-14T03:19:51;71.10;;;42.73;;
14326;SDS011;7247;53.330;-1.180;2023-05-14T03:22:19;92.73;;;44.90;;
14326;SDS011;7247;53.330;-1.180;2023-05-14T03:24:45;88.70;;;45.83;;
14326;SDS011;7247;53.330;-1.180;2023-05-14T03:27:12;79.47;;;44.23;;
14326;SDS011;7247;53.330;-1.180;2023-05-14T03:29:38;70.63;;;44.90;;
14326;SDS011;7247;53.330;-1.180;2023-05-14T03:32:05;76.93;;;45.63;;
14326;SDS011;7247;53.330;-1.180;2023-05-14T03:34:31;95.80;;;45.73;;
14326;SDS011;7247;53.330;-1.180;2023-05-14T03:36:58;90.50;;;44.03;;
14326;SDS011;7247;53.330;-1.180;2023-05-14T03:39:25;77.47;;;44.50;;
14326;SDS011;7247;53.330;-1.180;2023-05-14T03:41:52;112.43;;;44.80;;
14326;SDS011;7247;53.330;-1.180;2023-05-14T03:44:21;89.77;;;45.03;;
14326;SDS011;7247;53.330;-1.180;2023-05-14T03:46:47;81.37;;;43.60;;
14326;SDS011;7247;53.330;-1.180;2023-05-14T03:49:13;114.70;;;46.10;;
14326;SDS011;7247;53.330;-1.180;2023-05-14T03:51:40;70.97;;;43.07;;
14326;SDS011;7247;53.330;-1.180;2023-05-14T03:54:06;155.53;;;46.57;;
14326;SDS011;7247;53.330;-1.180;2023-05-14T03:56:34;115.93;;;45.53;;
14326;SDS011;7247;53.330;-1.180;2023-05-14T03:59:00;103.00;;;45.93;;
14326;SDS011;7247;53.330;-1.180;2023-05-14T04:01:27;98.93;;;45.37;;
14326;SDS011;7247;53.330;-1.180;2023-05-14T04:03:53;78.77;;;44.03;;
14326;SDS011;7247;53.330;-1.180;2023-05-14T04:06:20;78.27;;;43.60;;
14326;SDS011;7247;53.330;-1.180;2023-05-14T04:08:46;95.67;;;46.17;;
14326;SDS011;7247;53.330;-1.180;2023-05-14T04:11:12;77.13;;;44.00;;
14326;SDS011;7247;53.330;-1.180;2023-05-14T04:13:40;96.13;;;43.70;;
14326;SDS011;7247;53.330;-1.180;2023-05-14T04:16:07;97.97;;;45.23;;
14326;SDS011;7247;53.330;-1.180;2023-05-14T04:18:33;73.03;;;42.17;;
14326;SDS011;7247;53.330;-1.180;2023-05-14T04:21:00;77.27;;;44.17;;
14326;SDS011;7247;53.330;-1.180;2023-05-14T04:23:26;101.20;;;44.67;;
14326;SDS011;7247;53.330;-1.180;2023-05-14T04:25:53;68.30;;;43.10;;
14326;SDS011;7247;53.330;-1.180;2023-05-14T04:28:19;92.17;;;44.90;;
14326;SDS011;7247;53.330;-1.180;2023-05-14T04:30:48;120.37;;;43.50;;
14326;SDS011;7247;53.330;-1.180;2023-05-14T04:33:14;63.67;;;41.63;;
14326;SDS011;7247;53.330;-1.180;2023-05-14T04:35:41;58.63;;;38.97;;
14326;SDS011;7247;53.330;-1.180;2023-05-14T04:38:07;64.83;;;42.40;;
14326;SDS011;7247;53.330;-1.180;2023-05-14T04:40:35;67.97;;;43.53;;
14326;SDS011;7247;53.330;-1.180;2023-05-14T04:43:01;63.67;;;42.87;;
14326;SDS011;7247;53.330;-1.180;2023-05-14T04:45:28;62.13;;;42.10;;
14326;SDS011;7247;53.330;-1.180;2023-05-14T04:47:56;59.97;;;41.03;;
14326;SDS011;7247;53.330;-1.180;2023-05-14T04:50:22;57.63;;;39.10;;
14326;SDS011;7247;53.330;-1.180;2023-05-14T04:52:49;56.93;;;39.67;;
14326;SDS011;7247;53.330;-1.180;2023-05-14T04:55:15;56.20;;;38.93;;
14326;SDS011;7247;53.330;-1.180;2023-05-14T04:57:42;53.23;;;38.77;;
14326;SDS011;7247;53.330;-1.180;2023-05-14T05:00:09;55.20;;;38.33;;
14326;SDS011;7247;53.330;-1.180;2023-05-14T05:02:35;63.37;;;40.67;;
14326;SDS011;7247;53.330;-1.180;2023-05-14T05:05:03;64.57;;;40.30;;
14326;SDS011;7247;53.330;-1.180;2023-05-14T05:07:30;65.40;;;40.30;;
14326;SDS011;7247;53.330;-1.180;2023-05-14T05:09:56;58.07;;;39.00;;
14326;SDS011;7247;53.330;-1.180;2023-05-14T05:12:24;67.17;;;41.20;;
14326;SDS011;7247;53.330;-1.180;2023-05-14T05:14:54;85.33;;;41.73;;
14326;SDS011;7247;53.330;-1.180;2023-05-14T05:17:20;83.23;;;42.70;;
14326;SDS011;7247;53.330;-1.180;2023-05-14T05:19:46;73.13;;;42.40;;
14326;SDS011;7247;53.330;-1.180;2023-05-14T05:22:14;89.93;;;41.67;;
14326;SDS011;7247;53.330;-1.180;2023-05-14T05:24:41;76.40;;;41.43;;
14326;SDS011;7247;53.330;-1.180;2023-05-14T05:27:07;73.60;;;40.13;;
14326;SDS011;7247;53.330;-1.180;2023-05-14T05:29:34;65.03;;;40.93;;
14326;SDS011;7247;53.330;-1.180;2023-05-14T05:32:00;89.30;;;40.97;;
14326;SDS011;7247;53.330;-1.180;2023-05-14T05:34:26;78.70;;;41.40;;
14326;SDS011;7247;53.330;-1.180;2023-05-14T05:36:53;63.67;;;39.73;;
14326;SDS011;7247;53.330;-1.180;2023-05-14T05:39:21;91.37;;;39.37;;
14326;SDS011;7247;53.330;-1.180;2023-05-14T05:41:47;105.90;;;38.17;;
14326;SDS011;7247;53.330;-1.180;2023-05-14T05:44:13;77.23;;;37.40;;
14326;SDS011;7247;53.330;-1.180;2023-05-14T05:46:40;78.57;;;39.17;;
14326;SDS011;7247;53.330;-1.180;2023-05-14T05:49:06;72.57;;;37.87;;
14326;SDS011;7247;53.330;-1.180;2023-05-14T05:51:32;71.10;;;38.77;;
14326;SDS011;7247;53.330;-1.180;2023-05-14T05:53:59;71.83;;;38.97;;
14326;SDS011;7247;53.330;-1.180;2023-05-14T05:56:27;66.07;;;38.73;;
14326;SDS011;7247;53.330;-1.180;2023-05-14T05:58:53;89.63;;;37.30;;
14326;SDS011;7247;53.330;-1.180;2023-05-14T06:01:19;63.80;;;35.93;;
14326;SDS011;7247;53.330;-1.180;2023-05-14T06:03:46;57.53;;;36.60;;
14326;SDS011;7247;53.330;-1.180;2023-05-14T06:06:12;56.53;;;37.37;;
14326;SDS011;7247;53.330;-1.180;2023-05-14T06:08:39;78.53;;;38.73;;
14326;SDS011;7247;53.330;-1.180;2023-05-14T06:11:06;69.47;;;37.53;;
14326;SDS011;7247;53.330;-1.180;2023-05-14T06:13:33;115.77;;;36.60;;
14326;SDS011;7247;53.330;-1.180;2023-05-14T06:16:00;53.43;;;37.53;;
14326;SDS011;7247;53.330;-1.180;2023-05-14T06:18:26;55.87;;;37.43;;
14326;SDS011;7247;53.330;-1.180;2023-05-14T06:20:53;54.57;;;35.93;;
14326;SDS011;7247;53.330;-1.180;2023-05-14T06:23:20;82.67;;;36.20;;
14326;SDS011;7247;53.330;-1.180;2023-05-14T06:25:48;50.63;;;35.60;;
14326;SDS011;7247;53.330;-1.180;2023-05-14T06:28:14;84.53;;;37.07;;
14326;SDS011;7247;53.330;-1.180;2023-05-14T06:30:42;45.90;;;33.27;;
14326;SDS011;7247;53.330;-1.180;2023-05-14T06:33:08;49.43;;;33.13;;
14326;SDS011;7247;53.330;-1.180;2023-05-14T06:35:36;44.97;;;33.20;;
14326;SDS011;7247;53.330;-1.180;2023-05-14T06:38:03;49.13;;;32.63;;
14326;SDS011;7247;53.330;-1.180;2023-05-14T06:40:30;86.80;;;33.87;;
14326;SDS011;7247;53.330;-1.180;2023-05-14T06:42:56;58.13;;;35.93;;
14326;SDS011;7247;53.330;-1.180;2023-05-14T06:45:22;51.77;;;36.53;;
14326;SDS011;7247;53.330;-1.180;2023-05-14T06:47:50;61.53;;;36.70;;
14326;SDS011;7247;53.330;-1.180;2023-05-14T06:50:17;61.90;;;37.47;;
14326;SDS011;7247;53.330;-1.180;2023-05-14T06:52:43;54.53;;;37.50;;
14326;SDS011;7247;53.330;-1.180;2023-05-14T06:55:10;54.37;;;39.60;;
14326;SDS011;7247;53.330;-1.180;2023-05-14T06:57:36;53.73;;;37.43;;
14326;SDS011;7247;53.330;-1.180;2023-05-14T07:00:03;54.10;;;38.67;;
14326;SDS011;7247;53.330;-1.180;2023-05-14T07:02:29;55.23;;;36.33;;
14326;SDS011;7247;53.330;-1.180;2023-05-14T07:04:57;50.03;;;36.23;;
14326;SDS011;7247;53.330;-1.180;2023-05-14T07:07:23;47.60;;;35.97;;
14326;SDS011;7247;53.330;-1.180;2023-05-14T07:09:50;51.40;;;35.03;;
14326;SDS011;7247;53.330;-1.180;2023-05-14T07:12:16;48.77;;;35.23;;
14326;SDS011;7247;53.330;-1.180;2023-05-14T07:14:43;44.87;;;34.07;;
14326;SDS011;7247;53.330;-1.180;2023-05-14T07:17:09;55.90;;;34.63;;
14326;SDS011;7247;53.330;-1.180;2023-05-14T07:19:36;46.27;;;35.37;;
14326;SDS011;7247;53.330;-1.180;2023-05-14T07:22:04;44.33;;;33.97;;
14326;SDS011;7247;53.330;-1.180;2023-05-14T07:24:30;43.17;;;32.93;;
14326;SDS011;7247;53.330;-1.180;2023-05-14T07:26:56;42.53;;;33.77;;
14326;SDS011;7247;53.330;-1.180;2023-05-14T07:29:23;39.37;;;32.03;;
14326;SDS011;7247;53.330;-1.180;2023-05-14T07:31:50;41.73;;;33.00;;
14326;SDS011;7247;53.330;-1.180;2023-05-14T07:34:16;48.07;;;32.37;;
14326;SDS011;7247;53.330;-1.180;2023-05-14T07:36:43;38.73;;;31.53;;
14326;SDS011;7247;53.330;-1.180;2023-05-14T07:39:11;38.37;;;31.77;;
14326;SDS011;7247;53.330;-1.180;2023-05-14T07:41:37;39.70;;;31.33;;
14326;SDS011;7247;53.330;-1.180;2023-05-14T07:44:03;38.40;;;31.93;;
14326;SDS011;7247;53.330;-1.180;2023-05-14T07:46:30;38.40;;;32.20;;
14326;SDS011;7247;53.330;-1.180;2023-05-14T07:48:56;40.40;;;31.97;;
14326;SDS011;7247;53.330;-1.180;2023-05-14T07:51:23;43.37;;;32.93;;
14326;SDS011;7247;53.330;-1.180;2023-05-14T07:53:52;39.37;;;33.10;;
14326;SDS011;7247;53.330;-1.180;2023-05-14T07:56:20;38.07;;;32.00;;
14326;SDS011;7247;53.330;-1.180;2023-05-14T07:58:47;38.47;;;31.70;;
14326;SDS011;7247;53.330;-1.180;2023-05-14T08:01:13;38.03;;;30.53;;
14326;SDS011;7247;53.330;-1.180;2023-05-14T08:03:40;35.73;;;30.23;;
14326;SDS011;7247;53.330;-1.180;2023-05-14T08:06:06;32.63;;;29.03;;
14326;SDS011;7247;53.330;-1.180;2023-05-14T08:08:33;31.67;;;28.20;;
14326;SDS011;7247;53.330;-1.180;2023-05-14T08:10:59;34.13;;;29.07;;
14326;SDS011;7247;53.330;-1.180;2023-05-14T08:13:27;32.50;;;29.00;;
14326;SDS011;7247;53.330;-1.180;2023-05-14T08:15:53;34.87;;;29.27;;
14326;SDS011;7247;53.330;-1.180;2023-05-14T08:18:20;33.20;;;29.67;;
14326;SDS011;7247;53.330;-1.180;2023-05-14T08:20:46;34.00;;;30.27;;
14326;SDS011;7247;53.330;-1.180;2023-05-14T08:23:13;31.10;;;27.40;;
14326;SDS011;7247;53.330;-1.180;2023-05-14T08:25:39;33.67;;;30.03;;
14326;SDS011;7247;53.330;-1.180;2023-05-14T08:28:05;32.93;;;29.33;;
14326;SDS011;7247;53.330;-1.180;2023-05-14T08:30:33;33.30;;;29.27;;
14326;SDS011;7247;53.330;-1.180;2023-05-14T08:33:00;33.00;;;28.63;;
14326;SDS011;7247;53.330;-1.180;2023-05-14T08:35:26;31.60;;;28.20;;
14326;SDS011;7247;53.330;-1.180;2023-05-14T08:37:52;33.00;;;29.50;;
14326;SDS011;7247;53.330;-1.180;2023-05-14T08:40:20;30.60;;;27.37;;
14326;SDS011;7247;53.330;-1.180;2023-05-14T08:42:47;32.27;;;28.80;;
14326;SDS011;7247;53.330;-1.180;2023-05-14T08:45:16;33.60;;;30.00;;
14326;SDS011;7247;53.330;-1.180;2023-05-14T08:47:44;33.07;;;29.00;;
14326;SDS011;7247;53.330;-1.180;2023-05-14T08:50:12;32.63;;;29.13;;
14326;SDS011;7247;53.330;-1.180;2023-05-14T08:52:38;31.67;;;28.37;;
14326;SDS011;7247;53.330;-1.180;2023-05-14T08:55:05;31.60;;;28.20;;
14326;SDS011;7247;53.330;-1.180;2023-05-14T08:57:32;30.50;;;27.40;;
14326;SDS011;7247;53.330;-1.180;2023-05-14T08:59:58;31.13;;;27.83;;
14326;SDS011;7247;53.330;-1.180;2023-05-14T09:02:26;31.10;;;27.90;;
14326;SDS011;7247;53.330;-1.180;2023-05-14T09:04:55;30.43;;;27.27;;
14326;SDS011;7247;53.330;-1.180;2023-05-14T09:07:22;31.13;;;27.90;;
14326;SDS011;7247;53.330;-1.180;2023-05-14T09:09:48;30.33;;;27.23;;
14326;SDS011;7247;53.330;-1.180;2023-05-14T09:12:16;32.03;;;28.77;;
14326;SDS011;7247;53.330;-1.180;2023-05-14T09:14:42;31.10;;;28.00;;
14326;SDS011;7247;53.330;-1.180;2023-05-14T09:17:08;29.07;;;26.17;;
14326;SDS011;7247;53.330;-1.180;2023-05-14T09:19:36;30.50;;;27.33;;
14326;SDS011;7247;53.330;-1.180;2023-05-14T09:22:07;31.07;;;27.97;;
14326;SDS011;7247;53.330;-1.180;2023-05-14T09:24:33;29.77;;;26.77;;
14326;SDS011;7247;53.330;-1.180;2023-05-14T09:27:00;29.77;;;26.67;;
14326;SDS011;7247;53.330;-1.180;2023-05-14T09:29:28;29.87;;;26.93;;
14326;SDS011;7247;53.330;-1.180;2023-05-14T09:31:55;29.90;;;26.70;;
14326;SDS011;7247;53.330;-1.180;2023-05-14T09:34:22;29.77;;;26.77;;
14326;SDS011;7247;53.330;-1.180;2023-05-14T09:36:48;30.03;;;27.03;;
14326;SDS011;7247;53.330;-1.180;2023-05-14T09:39:17;30.13;;;27.03;;
14326;SDS011;7247;53.330;-1.180;2023-05-14T09:41:43;28.93;;;26.03;;
14326;SDS011;7247;53.330;-1.180;2023-05-14T09:44:10;27.40;;;24.50;;
14326;SDS011;7247;53.330;-1.180;2023-05-14T09:46:36;28.53;;;25.63;;
14326;SDS011;7247;53.330;-1.180;2023-05-14T09:49:03;27.70;;;25.10;;
14326;SDS011;7247;53.330;-1.180;2023-05-14T09:51:29;28.83;;;25.83;;
14326;SDS011;7247;53.330;-1.180;2023-05-14T09:53:56;26.77;;;24.20;;
14326;SDS011;7247;53.330;-1.180;2023-05-14T09:56:24;27.10;;;24.50;;
14326;SDS011;7247;53.330;-1.180;2023-05-14T09:58:51;27.70;;;25.00;;
14326;SDS011;7247;53.330;-1.180;2023-05-14T10:01:17;25.60;;;23.20;;
14326;SDS011;7247;53.330;-1.180;2023-05-14T10:03:44;26.00;;;23.40;;
14326;SDS011;7247;53.330;-1.180;2023-05-14T10:06:10;27.57;;;24.70;;
14326;SDS011;7247;53.330;-1.180;2023-05-14T10:08:40;26.30;;;23.70;;
14326;SDS011;7247;53.330;-1.180;2023-05-14T10:11:07;25.87;;;23.47;;
14326;SDS011;7247;53.330;-1.180;2023-05-14T10:13:38;25.73;;;23.20;;
14326;SDS011;7247;53.330;-1.180;2023-05-14T10:16:07;26.90;;;24.40;;
14326;SDS011;7247;53.330;-1.180;2023-05-14T10:18:38;24.13;;;21.93;;
14326;SDS011;7247;53.330;-1.180;2023-05-14T10:21:05;24.50;;;22.17;;
14326;SDS011;7247;53.330;-1.180;2023-05-14T10:23:32;25.67;;;23.23;;
14326;SDS011;7247;53.330;-1.180;2023-05-14T10:26:01;25.77;;;23.37;;
14326;SDS011;7247;53.330;-1.180;2023-05-14T10:28:28;24.97;;;22.60;;
14326;SDS011;7247;53.330;-1.180;2023-05-14T10:30:56;23.80;;;21.60;;
14326;SDS011;7247;53.330;-1.180;2023-05-14T10:33:24;24.97;;;22.73;;
14326;SDS011;7247;53.330;-1.180;2023-05-14T10:35:51;24.67;;;22.27;;
14326;SDS011;7247;53.330;-1.180;2023-05-14T10:38:21;23.80;;;21.60;;
14326;SDS011;7247;53.330;-1.180;2023-05-14T10:40:47;22.50;;;20.40;;
14326;SDS011;7247;53.330;-1.180;2023-05-14T10:43:14;23.27;;;21.07;;
14326;SDS011;7247;53.330;-1.180;2023-05-14T10:45:42;22.07;;;20.07;;
14326;SDS011;7247;53.330;-1.180;2023-05-14T10:48:10;21.53;;;19.70;;
14326;SDS011;7247;53.330;-1.180;2023-05-14T10:50:36;20.43;;;18.53;;
14326;SDS011;7247;53.330;-1.180;2023-05-14T10:53:03;21.70;;;19.60;;
14326;SDS011;7247;53.330;-1.180;2023-05-14T10:55:30;21.03;;;19.03;;
14326;SDS011;7247;53.330;-1.180;2023-05-14T10:57:57;21.53;;;19.57;;
14326;SDS011;7247;53.330;-1.180;2023-05-14T11:00:25;20.20;;;18.40;;
14326;SDS011;7247;53.330;-1.180;2023-05-14T11:02:53;22.63;;;20.53;;
14326;SDS011;7247;53.330;-1.180;2023-05-14T11:05:22;21.83;;;19.83;;
14326;SDS011;7247;53.330;-1.180;2023-05-14T11:07:51;22.17;;;20.10;;
14326;SDS011;7247;53.330;-1.180;2023-05-14T11:10:20;21.03;;;19.03;;
14326;SDS011;7247;53.330;-1.180;2023-05-14T11:12:47;21.60;;;19.60;;
14326;SDS011;7247;53.330;-1.180;2023-05-14T11:15:15;20.63;;;18.63;;
14326;SDS011;7247;53.330;-1.180;2023-05-14T11:17:42;21.07;;;19.07;;
14326;SDS011;7247;53.330;-1.180;2023-05-14T11:20:09;22.27;;;20.17;;
14326;SDS011;7247;53.330;-1.180;2023-05-14T11:22:38;20.70;;;18.70;;
14326;SDS011;7247;53.330;-1.180;2023-05-14T11:25:05;20.20;;;18.30;;
14326;SDS011;7247;53.330;-1.180;2023-05-14T11:27:33;21.17;;;19.33;;
14326;SDS011;7247;53.330;-1.180;2023-05-14T11:29:59;20.67;;;18.83;;
14326;SDS011;7247;53.330;-1.180;2023-05-14T11:32:26;19.37;;;17.57;;
14326;SDS011;7247;53.330;-1.180;2023-05-14T11:34:52;18.90;;;17.10;;
14326;SDS011;7247;53.330;-1.180;2023-05-14T11:37:19;19.47;;;17.77;;
14326;SDS011;7247;53.330;-1.180;2023-05-14T11:39:47;17.98;;;16.38;;
14326;SDS011;7247;53.330;-1.180;2023-05-14T11:42:14;19.33;;;17.58;;
14326;SDS011;7247;53.330;-1.180;2023-05-14T11:44:42;18.20;;;16.48;;
14326;SDS011;7247;53.330;-1.180;2023-05-14T11:47:10;18.42;;;16.63;;
14326;SDS011;7247;53.330;-1.180;2023-05-14T11:49:36;18.15;;;16.65;;
14326;SDS011;7247;53.330;-1.180;2023-05-14T11:52:03;18.83;;;16.92;;
14326;SDS011;7247;53.330;-1.180;2023-05-14T11:54:30;17.98;;;16.38;;
14326;SDS011;7247;53.330;-1.180;2023-05-14T11:56:58;17.10;;;15.60;;
14326;SDS011;7247;53.330;-1.180;2023-05-14T11:59:25;15.52;;;14.23;;
14326;SDS011;7247;53.330;-1.180;2023-05-14T12:01:52;16.15;;;14.65;;
14326;SDS011;7247;53.330;-1.180;2023-05-14T12:04:19;16.17;;;14.77;;
14326;SDS011;7247;53.330;-1.180;2023-05-14T12:06:46;16.33;;;14.93;;
14326;SDS011;7247;53.330;-1.180;2023-05-14T12:09:13;15.45;;;14.00;;
14326;SDS011;7247;53.330;-1.180;2023-05-14T12:11:41;14.00;;;12.57;;
14326;SDS011;7247;53.330;-1.180;2023-05-14T12:14:13;13.90;;;12.68;;
14326;SDS011;7247;53.330;-1.180;2023-05-14T12:16:40;13.70;;;12.43;;
14326;SDS011;7247;53.330;-1.180;2023-05-14T12:19:07;12.23;;;11.13;;
14326;SDS011;7247;53.330;-1.180;2023-05-14T12:21:33;13.98;;;12.68;;
14326;SDS011;7247;53.330;-1.180;2023-05-14T12:24:00;15.75;;;14.25;;
14326;SDS011;7247;53.330;-1.180;2023-05-14T12:26:27;14.27;;;12.98;;
14326;SDS011;7247;53.330;-1.180;2023-05-14T12:28:55;13.27;;;12.07;;
14326;SDS011;7247;53.330;-1.180;2023-05-14T12:31:27;14.53;;;13.23;;
14326;SDS011;7247;53.330;-1.180;2023-05-14T12:33:54;12.73;;;11.57;;
14326;SDS011;7247;53.330;-1.180;2023-05-14T12:36:21;14.37;;;12.97;;
14326;SDS011;7247;53.330;-1.180;2023-05-14T12:38:47;14.40;;;13.10;;
14326;SDS011;7247;53.330;-1.180;2023-05-14T12:41:14;12.97;;;11.73;;
14326;SDS011;7247;53.330;-1.180;2023-05-14T12:43:43;14.03;;;12.63;;
14326;SDS011;7247;53.330;-1.180;2023-05-14T12:46:09;13.23;;;12.13;;
14326;SDS011;7247;53.330;-1.180;2023-05-14T12:48:37;12.83;;;11.63;;
14326;SDS011;7247;53.330;-1.180;2023-05-14T12:51:04;14.10;;;12.90;;
14326;SDS011;7247;53.330;-1.180;2023-05-14T12:53:30;13.65;;;12.45;;
14326;SDS011;7247;53.330;-1.180;2023-05-14T12:55:57;14.70;;;13.30;;
14326;SDS011;7247;53.330;-1.180;2023-05-14T12:58:23;14.73;;;13.32;;
14326;SDS011;7247;53.330;-1.180;2023-05-14T13:00:49;13.10;;;11.90;;
14326;SDS011;7247;53.330;-1.180;2023-05-14T13:03:16;14.50;;;13.20;;
14326;SDS011;7247;53.330;-1.180;2023-05-14T13:05:44;13.75;;;12.52;;
14326;SDS011;7247;53.330;-1.180;2023-05-14T13:08:10;14.45;;;13.15;;
14326;SDS011;7247;53.330;-1.180;2023-05-14T13:10:38;12.18;;;11.18;;
14326;SDS011;7247;53.330;-1.180;2023-05-14T13:13:05;12.60;;;11.50;;
14326;SDS011;7247;53.330;-1.180;2023-05-14T13:15:31;12.27;;;11.13;;
14326;SDS011;7247;53.330;-1.180;2023-05-14T13:17:58;11.27;;;10.35;;
14326;SDS011;7247;53.330;-1.180;2023-05-14T13:20:24;12.77;;;11.68;;
14326;SDS011;7247;53.330;-1.180;2023-05-14T13:22:52;13.27;;;12.17;;
14326;SDS011;7247;53.330;-1.180;2023-05-14T13:25:19;10.03;;;9.17;;
14326;SDS011;7247;53.330;-1.180;2023-05-14T13:27:45;7.60;;;6.90;;
14326;SDS011;7247;53.330;-1.180;2023-05-14T13:30:14;8.13;;;7.43;;
14326;SDS011;7247;53.330;-1.180;2023-05-14T13:32:41;5.97;;;5.47;;
14326;SDS011;7247;53.330;-1.180;2023-05-14T13:35:08;3.47;;;3.17;;
14326;SDS011;7247;53.330;-1.180;2023-05-14T13:37:34;2.33;;;2.13;;
14326;SDS011;7247;53.330;-1.180;2023-05-14T13:40:02;2.17;;;1.60;;
14326;SDS011;7247;53.330;-1.180;2023-05-14T13:42:31;1.85;;;1.75;;
14326;SDS011;7247;53.330;-1.180;2023-05-14T13:44:57;1.90;;;1.80;;
14326;SDS011;7247;53.330;-1.180;2023-05-14T13:47:24;1.65;;;1.55;;
14326;SDS011;7247;53.330;-1.180;2023-05-14T13:49:51;2.28;;;1.70;;
14326;SDS011;7247;53.330;-1.180;2023-05-14T13:52:17;1.92;;;1.67;;
14326;SDS011;7247;53.330;-1.180;2023-05-14T13:54:44;3.33;;;2.95;;
14326;SDS011;7247;53.330;-1.180;2023-05-14T13:57:12;7.20;;;5.97;;
14326;SDS011;7247;53.330;-1.180;2023-05-14T13:59:38;7.40;;;6.70;;
14326;SDS011;7247;53.330;-1.180;2023-05-14T14:02:05;5.70;;;5.25;;
14326;SDS011;7247;53.330;-1.180;2023-05-14T14:04:31;6.13;;;5.50;;
14326;SDS011;7247;53.330;-1.180;2023-05-14T14:06:57;6.70;;;6.00;;
14326;SDS011;7247;53.330;-1.180;2023-05-14T14:09:24;8.23;;;7.45;;
14326;SDS011;7247;53.330;-1.180;2023-05-14T14:11:50;7.85;;;7.03;;
14326;SDS011;7247;53.330;-1.180;2023-05-14T14:14:18;6.38;;;5.78;;
14326;SDS011;7247;53.330;-1.180;2023-05-14T14:16:45;6.03;;;5.50;;
14326;SDS011;7247;53.330;-1.180;2023-05-14T14:19:11;5.13;;;4.70;;
14326;SDS011;7247;53.330;-1.180;2023-05-14T14:21:38;4.72;;;4.32;;